createdAt,value
2023-02-23T00:00:38.257Z,10.57
2023-02-23T00:05:44.990Z,11.07
2023-02-23T00:10:53.530Z,11.43
2023-02-23T00:16:00.668Z,12.50
2023-02-23T00:21:07.989Z,12.70
2023-02-23T00:26:14.741Z,12.67
2023-02-23T00:31:26.451Z,12.23
2023-02-23T00:36:37.178Z,12.70
2023-02-23T00:41:44.088Z,12.20
2023-02-23T00:46:52.529Z,11.83
2023-02-23T00:52:00.152Z,11.97
2023-02-23T00:57:07.200Z,11.63
2023-02-23T01:02:13.940Z,11.50
2023-02-23T01:07:20.620Z,12.17
2023-02-23T01:12:27.445Z,12.47
2023-02-23T01:17:34.535Z,11.63
2023-02-23T01:22:42.534Z,12.77
2023-02-23T01:27:49.319Z,11.80
2023-02-23T01:32:56.477Z,12.27
2023-02-23T01:38:04.183Z,11.40
2023-02-23T01:43:18.758Z,11.87
2023-02-23T01:48:36.173Z,12.00
2023-02-23T01:53:47.053Z,12.87
2023-02-23T01:58:57.516Z,12.73
2023-02-23T02:04:06.332Z,11.87
2023-02-23T02:09:20.010Z,12.50
2023-02-23T02:14:32.827Z,12.37
2023-02-23T02:20:24.802Z,11.63
2023-02-23T02:25:42.659Z,10.97
2023-02-23T02:31:16.080Z,10.77
2023-02-23T02:37:02.430Z,11.07
2023-02-23T02:42:35.224Z,10.93
2023-02-23T02:47:46.485Z,11.27
2023-02-23T02:53:03.542Z,11.60
2023-02-23T02:58:12.857Z,11.17
2023-02-23T03:04:02.377Z,11.07
2023-02-23T03:09:47.387Z,13.03
2023-02-23T03:15:24.753Z,12.00
2023-02-23T03:20:59.296Z,11.50
2023-02-23T03:26:48.595Z,12.82
2023-02-23T03:32:32.212Z,12.23
2023-02-23T03:38:06.482Z,12.10
2023-02-23T03:43:34.659Z,9.00
2023-02-23T03:49:01.875Z,12.03
2023-02-23T03:54:39.437Z,12.97
2023-02-23T04:05:42.615Z,12.17
2023-02-23T04:11:17.311Z,13.23
2023-02-23T04:21:28.681Z,14.20
2023-02-23T04:26:35.379Z,14.67
2023-02-23T04:31:42.115Z,13.90
2023-02-23T04:36:50.490Z,14.00
2023-02-23T04:41:57.152Z,15.00
2023-02-23T04:47:04.620Z,14.63
2023-02-23T04:52:11.460Z,14.27
2023-02-23T04:57:18.476Z,15.03
2023-02-23T05:02:25.394Z,14.30
2023-02-23T05:07:32.058Z,14.47
2023-02-23T05:12:38.865Z,14.17
2023-02-23T05:17:45.575Z,15.67
2023-02-23T05:22:52.303Z,14.77
2023-02-23T05:27:59.958Z,15.67
2023-02-23T05:33:06.724Z,15.80
2023-02-23T05:38:13.565Z,14.37
2023-02-23T05:43:20.282Z,14.93
2023-02-23T05:48:26.906Z,16.03
2023-02-23T05:53:33.901Z,15.90
2023-02-23T05:58:41.267Z,16.23
2023-02-23T06:03:48.713Z,16.03
2023-02-23T06:08:56.159Z,15.77
2023-02-23T06:14:03.183Z,15.83
2023-02-23T06:19:09.853Z,16.30
2023-02-23T06:24:18.059Z,15.80
2023-02-23T06:29:24.697Z,16.37
2023-02-23T06:34:31.661Z,16.07
2023-02-23T06:39:38.373Z,14.90
2023-02-23T06:44:44.991Z,16.60
2023-02-23T06:49:51.830Z,17.37
2023-02-23T06:54:58.593Z,16.27
2023-02-23T07:00:06.359Z,15.80
2023-02-23T07:05:13.713Z,16.53
2023-02-23T07:10:21.195Z,15.20
2023-02-23T07:15:27.968Z,14.40
2023-02-23T07:20:34.989Z,16.87
2023-02-23T07:25:43.542Z,15.27
2023-02-23T07:30:53.573Z,15.60
2023-02-23T07:36:00.480Z,14.50
2023-02-23T07:41:08.189Z,15.57
2023-02-23T07:46:16.151Z,16.40
2023-02-23T07:51:23.244Z,15.30
2023-02-23T07:56:29.986Z,14.37
2023-02-23T08:01:36.725Z,13.77
2023-02-23T08:06:47.391Z,14.60
2023-02-23T08:11:54.959Z,15.10
2023-02-23T08:17:01.951Z,15.70
2023-02-23T08:22:10.087Z,15.20
2023-02-23T08:27:17.130Z,15.87
2023-02-23T08:32:24.190Z,13.73
2023-02-23T08:37:31.501Z,13.90
2023-02-23T08:42:38.399Z,15.47
2023-02-23T08:47:44.978Z,15.63
2023-02-23T08:52:51.693Z,15.03
2023-02-23T08:57:58.868Z,15.23
2023-02-23T09:03:07.736Z,15.73
2023-02-23T09:08:16.699Z,14.73
2023-02-23T09:13:23.328Z,15.80
2023-02-23T09:18:31.016Z,15.27
2023-02-23T09:23:38.875Z,15.57
2023-02-23T09:28:46.725Z,14.73
2023-02-23T09:33:55.111Z,14.90
2023-02-23T09:39:02.064Z,14.80
2023-02-23T09:44:22.146Z,14.87
2023-02-23T09:49:34.107Z,15.30
2023-02-23T09:54:41.565Z,15.10
2023-02-23T09:59:48.436Z,14.77
2023-02-23T10:04:59.954Z,15.17
2023-02-23T10:10:23.650Z,14.93
2023-02-23T10:15:52.578Z,14.73
2023-02-23T10:21:24.684Z,15.63
2023-02-23T10:26:42.949Z,13.63
2023-02-23T10:31:59.183Z,14.30
2023-02-23T10:37:10.410Z,14.30
2023-02-23T10:42:22.103Z,14.10
2023-02-23T10:47:34.959Z,14.83
2023-02-23T10:52:50.826Z,14.37
2023-02-23T10:58:12.818Z,16.03
2023-02-23T11:03:29.627Z,15.67
2023-02-23T11:08:42.310Z,16.37
2023-02-23T11:13:52.070Z,16.20
2023-02-23T11:19:05.196Z,17.00
2023-02-23T11:24:33.303Z,16.87
2023-02-23T11:29:47.851Z,15.83
2023-02-23T11:35:30.220Z,15.43
2023-02-23T11:40:37.916Z,15.60
2023-02-23T11:45:54.166Z,15.07
2023-02-23T11:51:02.818Z,16.00
2023-02-23T11:56:12.552Z,14.73
2023-02-23T12:01:26.525Z,15.47
2023-02-23T12:06:39.972Z,15.45
2023-02-23T12:12:05.662Z,15.15
2023-02-23T12:17:19.715Z,15.83
2023-02-23T12:22:36.718Z,16.27
2023-02-23T12:27:56.712Z,15.30
2023-02-23T12:33:06.738Z,17.00
2023-02-23T12:39:04.604Z,15.47
2023-02-23T12:44:24.784Z,15.73
2023-02-23T12:49:44.678Z,15.70
2023-02-23T12:54:51.801Z,17.03
2023-02-23T13:00:33.052Z,17.73
2023-02-23T13:05:44.491Z,17.50
2023-02-23T13:11:07.703Z,18.03
2023-02-23T13:16:33.836Z,17.73
2023-02-23T13:21:45.088Z,17.37
2023-02-23T13:26:56.357Z,19.23
2023-02-23T13:32:05.970Z,17.37
2023-02-23T13:37:16.717Z,17.50
2023-02-23T13:42:36.868Z,17.30
2023-02-23T13:48:05.415Z,17.37
2023-02-23T13:53:31.847Z,17.60
2023-02-23T13:58:39.805Z,17.70
2023-02-23T14:04:02.034Z,16.87
2023-02-23T14:09:23.195Z,17.17
2023-02-23T14:14:41.653Z,17.70
2023-02-23T14:20:24.407Z,16.83
2023-02-23T14:25:41.765Z,17.53
2023-02-23T14:30:52.602Z,18.50
2023-02-23T14:35:59.334Z,19.50
2023-02-23T14:41:09.010Z,19.87
2023-02-23T14:46:24.841Z,19.47
2023-02-23T14:51:45.152Z,20.10
2023-02-23T14:56:57.653Z,18.63
2023-02-23T15:02:20.479Z,19.87
2023-02-23T15:07:34.321Z,20.23
2023-02-23T15:12:41.307Z,18.05
2023-02-23T15:17:52.674Z,19.53
2023-02-23T15:23:05.365Z,19.63
2023-02-23T15:28:29.527Z,19.60
2023-02-23T15:33:38.084Z,19.87
2023-02-23T15:38:49.433Z,20.20
2023-02-23T15:43:57.723Z,19.17
2023-02-23T15:49:06.191Z,18.27
2023-02-23T15:54:32.438Z,18.77
2023-02-23T15:59:42.063Z,18.60
2023-02-23T16:04:51.817Z,16.87
2023-02-23T16:10:24.036Z,17.37
2023-02-23T16:15:37.346Z,17.80
2023-02-23T16:20:53.574Z,17.63
2023-02-23T16:26:12.225Z,17.73
2023-02-23T16:31:25.280Z,16.80
2023-02-23T16:36:40.612Z,18.17
2023-02-23T16:41:47.702Z,16.73
2023-02-23T16:47:11.858Z,15.93
2023-02-23T16:52:24.395Z,17.48
2023-02-23T16:57:35.772Z,16.50
2023-02-23T17:02:43.008Z,16.70
2023-02-23T17:07:49.994Z,16.77
2023-02-23T17:13:00.814Z,16.93
2023-02-23T17:18:08.133Z,17.93
2023-02-23T17:23:15.004Z,19.63
2023-02-23T17:28:21.925Z,21.80
2023-02-23T17:33:28.827Z,20.53
2023-02-23T17:38:35.800Z,19.87
2023-02-23T17:43:42.757Z,19.17
2023-02-23T17:48:49.953Z,18.03
2023-02-23T17:53:57.108Z,19.23
2023-02-23T17:59:04.842Z,19.60
2023-02-23T18:04:11.753Z,19.47
2023-02-23T18:09:18.903Z,19.27
2023-02-23T18:14:25.766Z,18.60
2023-02-23T18:19:32.802Z,19.40
2023-02-23T18:24:42.317Z,19.20
2023-02-23T18:29:49.334Z,20.80
2023-02-23T18:34:58.155Z,21.07
2023-02-23T18:40:05.783Z,20.40
2023-02-23T18:45:13.236Z,20.63
2023-02-23T18:50:21.401Z,18.70
2023-02-23T18:55:28.841Z,19.43
2023-02-23T19:00:37.203Z,19.57
2023-02-23T19:05:49.798Z,20.00
2023-02-23T19:10:56.544Z,21.27
2023-02-23T19:16:07.125Z,19.57
2023-02-23T19:21:15.116Z,19.87
2023-02-23T19:26:23.068Z,19.80
2023-02-23T19:31:30.933Z,20.23
2023-02-23T19:36:37.811Z,20.37
2023-02-23T19:41:46.575Z,21.40
2023-02-23T19:46:53.718Z,19.70
2023-02-23T19:52:00.998Z,20.50
2023-02-23T19:57:09.481Z,19.47
2023-02-23T20:02:16.406Z,21.90
2023-02-23T20:07:24.645Z,20.13
2023-02-23T20:12:34.070Z,22.67
2023-02-23T20:17:41.163Z,21.97
2023-02-23T20:22:48.133Z,22.50
2023-02-23T20:27:56.470Z,22.83
2023-02-23T20:33:09.216Z,19.73
2023-02-23T20:38:16.210Z,18.37
2023-02-23T20:43:23.131Z,17.67
2023-02-23T20:48:32.568Z,17.80
2023-02-23T20:53:40.035Z,17.17
2023-02-23T20:58:47.754Z,18.07
2023-02-23T21:03:57.134Z,18.67
2023-02-23T21:09:04.969Z,18.97
2023-02-23T21:14:12.141Z,21.73
2023-02-23T21:19:21.241Z,20.03
2023-02-23T21:24:30.387Z,21.63
2023-02-23T21:29:37.027Z,22.37
2023-02-23T21:34:44.659Z,20.40
2023-02-23T21:39:52.321Z,21.90
2023-02-23T21:44:59.246Z,21.67
2023-02-23T21:50:06.990Z,18.77
2023-02-23T21:55:24.649Z,20.40
2023-02-23T22:00:27.523Z,17.57
2023-02-23T22:05:36.352Z,17.10
2023-02-23T22:10:43.828Z,17.33
2023-02-23T22:15:50.637Z,16.97
2023-02-23T22:21:03.386Z,15.90
2023-02-23T22:26:10.958Z,15.67
2023-02-23T22:31:18.395Z,16.17
2023-02-23T22:36:25.635Z,17.63
2023-02-23T22:41:32.470Z,17.13
2023-02-23T22:46:40.635Z,18.20
2023-02-23T22:51:47.987Z,19.03
2023-02-23T22:56:55.539Z,18.00
2023-02-23T23:02:02.603Z,19.33
2023-02-23T23:07:10.773Z,20.00
2023-02-23T23:12:18.697Z,20.17
2023-02-23T23:17:25.721Z,20.57
2023-02-23T23:22:34.284Z,20.60
2023-02-23T23:27:42.261Z,19.83
2023-02-23T23:32:49.805Z,20.23
2023-02-23T23:37:57.279Z,19.23
2023-02-23T23:43:05.579Z,20.13
2023-02-23T23:48:12.460Z,19.27
2023-02-23T23:53:20.089Z,19.67
2023-02-23T23:58:27.184Z,18.53
